Latest Weather Observations for Point Wilson

IDV60901

Issued at 7:22 pm EST Sunday 19 April 2015 (issued every 10 minutes, with the page automatically refreshed every 10 minutes)

About weather observations | Map of Melbourne area stations | Latest observations for Melbourne area | Other Formats
Station Details ID: 087166 Name: POINT WILSON Lat: -38.10 Lon: 144.54 Height: 18.0 m
Data from the previous 72 hours. | See also: Recent months at Point Wilson
Date/Time
EST
Tmp

°C
App
Tmp
°C
Dew
Point
°C
Rel
Hum
%
Delta-T

°C
Wind Press
QNH
hPa
Press
MSL
hPa
Rain
since
9 am
mm
Dir
 
Spd
km/h
Gust
km/h
Spd
kts
Gust
kts
19/07:00pm - - - - - S 33 39 18 21 - - -
19/06:30pm - - - - - S 32 37 17 20 - - -
19/06:00pm - - - - - SSW 30 35 16 19 - - -
19/05:30pm - - - - - SSW 32 41 17 22 - - -
19/05:00pm - - - - - S 39 48 21 26 - - -
19/04:30pm - - - - - S 41 50 22 27 - - -
19/04:00pm - - - - - S 39 48 21 26 - - -
19/03:30pm - - - - - SSW 28 37 15 20 - - -
19/03:12pm - - - - - SSW 39 48 21 26 - - -
19/03:00pm - - - - - S 37 46 20 25 - - -
19/02:57pm - - - - - S 41 46 22 25 - - -
19/02:30pm - - - - - SSW 41 48 22 26 - - -
19/02:16pm - - - - - S 37 46 20 25 - - -
19/02:08pm - - - - - SSE 41 52 22 28 - - -
19/02:00pm - - - - - SSW 41 52 22 28 - - -
19/01:30pm - - - - - S 43 50 23 27 - - -
19/01:00pm - - - - - S 37 44 20 24 - - -
19/12:30pm - - - - - S 39 44 21 24 - - -
19/12:00pm - - - - - S 43 50 23 27 - - -
19/11:51am - - - - - S 43 54 23 29 - - -
19/11:30am - - - - - SSW 41 50 22 27 - - -
19/11:00am - - - - - SSW 41 48 22 26 - - -
19/10:30am - - - - - SSW 43 54 23 29 - - -
19/10:00am - - - - - SSW 43 50 23 27 - - -
19/09:30am - - - - - SSW 37 43 20 23 - - -
19/09:00am - - - - - W 24 30 13 16 - - -
19/08:30am - - - - - WSW 28 41 15 22 - - -
19/08:00am - - - - - SW 26 33 14 18 - - -
19/07:30am - - - - - SW 26 32 14 17 - - -
19/07:00am - - - - - SSW 22 33 12 18 - - -
19/06:30am - - - - - SW 39 48 21 26 - - -
19/06:00am - - - - - WSW 44 52 24 28 - - -
19/05:30am - - - - - WSW 32 54 17 29 - - -
19/05:00am - - - - - WSW 33 39 18 21 - - -
19/04:30am - - - - - WSW 32 39 17 21 - - -
19/04:00am - - - - - WSW 33 41 18 22 - - -
19/03:30am - - - - - W 33 39 18 21 - - -
19/03:00am - - - - - WSW 28 33 15 18 - - -
19/02:30am - - - - - WSW 28 33 15 18 - - -
19/02:00am - - - - - W 26 35 14 19 - - -
19/01:30am - - - - - W 28 33 15 18 - - -
19/01:00am - - - - - W 32 39 17 21 - - -
19/12:30am - - - - - W 28 35 15 19 - - -
19/12:00am - - - - - W 32 37 17 20 - - -
 
Date/Time
EST
Tmp

°C
App
Tmp
°C
Dew
Point
°C
Rel
Hum
%
Delta-T

°C
Wind Press
QNH
hPa
Press
MSL
hPa
Rain
since
9 am
mm
Dir
 
Spd
km/h
Gust
km/h
Spd
kts
Gust
kts
18/11:30pm - - - - - W 32 37 17 20 - - -
18/11:00pm - - - - - W 30 37 16 20 - - -
18/10:30pm - - - - - W 32 37 17 20 - - -
18/10:00pm - - - - - WNW 22 28 12 15 - - -
18/09:30pm - - - - - NW 22 24 12 13 - - -
18/09:00pm - - - - - W 26 32 14 17 - - -
18/08:30pm - - - - - W 32 39 17 21 - - -
18/08:00pm - - - - - WSW 32 37 17 20 - - -
18/07:30pm - - - - - WSW 35 46 19 25 - - -
18/07:00pm - - - - - WSW 39 48 21 26 - - -
18/06:30pm - - - - - WSW 35 41 19 22 - - -
18/06:22pm - - - - - WSW 35 41 19 22 - - -
18/06:00pm - - - - - SSW 37 46 20 25 - - -
18/05:30pm - - - - - SSW 48 59 26 32 - - -
18/05:26pm - - - - - SSW 50 59 27 32 - - -
18/05:17pm - - - - - SW 35 54 19 29 - - -
18/05:00pm - - - - - W 35 43 19 23 - - -
18/04:30pm - - - - - W 39 44 21 24 - - -
18/04:00pm - - - - - W 28 33 15 18 - - -
18/03:30pm - - - - - WNW 30 35 16 19 - - -
18/03:00pm - - - - - W 30 35 16 19 - - -
18/02:30pm - - - - - W 30 39 16 21 - - -
18/02:00pm - - - - - WNW 26 33 14 18 - - -
18/01:30pm - - - - - WNW 24 35 13 19 - - -
18/01:00pm - - - - - WNW 22 30 12 16 - - -
18/12:30pm - - - - - WNW 32 39 17 21 - - -
18/12:00pm - - - - - W 28 33 15 18 - - -
18/11:30am - - - - - WNW 32 37 17 20 - - -
18/11:00am - - - - - W 32 43 17 23 - - -
18/10:30am - - - - - W 35 41 19 22 - - -
18/10:00am - - - - - WNW 30 37 16 20 - - -
18/09:30am - - - - - WNW 20 26 11 14 - - -
18/09:00am - - - - - WNW 19 24 10 13 - - -
18/08:30am - - - - - WNW 17 20 9 11 - - -
18/08:00am - - - - - WNW 15 19 8 10 - - -
18/07:30am - - - - - W 24 30 13 16 - - -
18/07:00am - - - - - WNW 15 19 8 10 - - -
18/06:30am - - - - - WNW 17 20 9 11 - - -
18/06:00am - - - - - WNW 19 22 10 12 - - -
18/05:30am - - - - - WNW 22 24 12 13 - - -
18/05:00am - - - - - WNW 20 26 11 14 - - -
18/04:30am - - - - - NW 15 19 8 10 - - -
18/04:00am - - - - - NNW 13 19 7 10 - - -
18/03:30am - - - - - NNW 15 19 8 10 - - -
18/03:00am - - - - - WNW 19 22 10 12 - - -
18/02:30am - - - - - W 20 24 11 13 - - -
18/02:00am - - - - - WSW 19 22 10 12 - - -
18/01:30am - - - - - WSW 15 19 8 10 - - -
18/01:00am - - - - - WSW 13 15 7 8 - - -
18/12:30am - - - - - WSW 11 15 6 8 - - -
18/12:00am - - - - - W 15 17 8 9 - - -
 
Date/Time
EST
Tmp

°C
App
Tmp
°C
Dew
Point
°C
Rel
Hum
%
Delta-T

°C
Wind Press
QNH
hPa
Press
MSL
hPa
Rain
since
9 am
mm
Dir
 
Spd
km/h
Gust
km/h
Spd
kts
Gust
kts
17/11:30pm - - - - - W 9 13 5 7 - - -
17/11:00pm - - - - - W 11 13 6 7 - - -
17/10:30pm - - - - - NNW 4 7 2 4 - - -
17/10:00pm - - - - - NNE 7 11 4 6 - - -
17/09:30pm - - - - - N 9 11 5 6 - - -
17/09:00pm - - - - - NNE 11 13 6 7 - - -
17/08:30pm - - - - - N 15 26 8 14 - - -
17/08:00pm - - - - - NNE 17 19 9 10 - - -
17/07:30pm - - - - - NNE 17 19 9 10 - - -
17/07:00pm - - - - - NNE 15 17 8 9 - - -
17/06:30pm - - - - - NNE 20 22 11 12 - - -
17/06:00pm - - - - - NE 17 20 9 11 - - -
17/05:30pm - - - - - NNE 17 20 9 11 - - -
17/05:00pm - - - - - NNE 13 17 7 9 - - -
17/04:30pm - - - - - N 17 20 9 11 - - -
17/04:00pm - - - - - NNE 22 24 12 13 - - -
17/03:30pm - - - - - ENE 19 20 10 11 - - -
17/03:00pm - - - - - ENE 15 19 8 10 - - -
17/02:30pm - - - - - ENE 13 17 7 9 - - -
17/02:00pm - - - - - NE 9 15 5 8 - - -
17/01:30pm - - - - - ENE 9 13 5 7 - - -
17/01:00pm - - - - - E 15 17 8 9 - - -
17/12:30pm - - - - - ENE 19 20 10 11 - - -
17/12:00pm - - - - - E 17 20 9 11 - - -
17/11:30am - - - - - ENE 17 20 9 11 - - -
17/11:00am - - - - - ENE 17 19 9 10 - - -
17/10:30am - - - - - NNE 15 19 8 10 - - -
17/10:00am - - - - - NNE 15 17 8 9 - - -
17/09:30am - - - - - N 13 17 7 9 - - -
17/09:00am - - - - - NNE 11 17 6 9 - - -
17/08:30am - - - - - ESE 13 15 7 8 - - -
17/08:00am - - - - - ESE 11 15 6 8 - - -
17/07:30am - - - - - SE 11 13 6 7 - - -
17/07:00am - - - - - S 13 15 7 8 - - -
17/06:30am - - - - - SSE 15 17 8 9 - - -
17/06:00am - - - - - S 17 19 9 10 - - -
17/05:30am - - - - - S 17 19 9 10 - - -
17/05:00am - - - - - S 15 17 8 9 - - -
17/04:30am - - - - - SSW 13 15 7 8 - - -
17/04:00am - - - - - SSW 15 17 8 9 - - -
17/03:30am - - - - - SSW 9 13 5 7 - - -
17/03:00am - - - - - CALM 0 0 0 0 - - -
17/02:30am - - - - - CALM 0 0 0 0 - - -
17/02:00am - - - - - CALM 0 0 0 0 - - -
17/01:30am - - - - - SSW 4 7 2 4 - - -
17/01:00am - - - - - SSW 11 13 6 7 - - -
17/12:30am - - - - - SW 7 11 4 6 - - -
17/12:00am - - - - - WSW 13 17 7 9 - - -
 
Date/Time
EST
Tmp

°C
App
Tmp
°C
Dew
Point
°C
Rel
Hum
%
Delta-T

°C
Wind Press
QNH
hPa
Press
MSL
hPa
Rain
since
9 am
mm
Dir
 
Spd
km/h
Gust
km/h
Spd
kts
Gust
kts
16/11:30pm - - - - - S 7 9 4 5 - - -
16/11:00pm - - - - - S 7 11 4 6 - - -
16/10:30pm - - - - - S 11 15 6 8 - - -
16/10:00pm - - - - - S 13 15 7 8 - - -
16/09:30pm - - - - - S 11 15 6 8 - - -
16/09:00pm - - - - - S 13 17 7 9 - - -
16/08:30pm - - - - - S 13 17 7 9 - - -
16/08:00pm - - - - - S 13 17 7 9 - - -
16/07:30pm - - - - - S 15 17 8 9 - - -

Latest Capital City Observations: Canberra | Sydney | Melbourne | Brisbane | Adelaide | Perth | Hobart | Darwin

Other Formats:

Comma delimited format used in spreadsheet applications
http://www.bom.gov.au/fwo/IDV60901/IDV60901.94847.axf

JavaScript Object Notation format (JSON) in row-major order
http://www.bom.gov.au/fwo/IDV60901/IDV60901.94847.json